Terminal Aerodrome Forecast
Issued by NWS

Home | Current Version | Previous Version | Text Only | Print | Product List | Glossary On
Versions: 1 2 3 4 5 6 7 8 9 10 11 12 13 14 15
664
FTUS44 KBMX 231626 AAA
TAFEET
TAF AMD
KEET 231626Z 2316/2412 26006KT P6SM VCSH BKN015 OVC110
     FM231900 30012G20KT P6SM BKN025
     FM240500 31010KT P6SM OVC015=

USA.gov is the U.S. government's official web portal to all federal, state and local government web resources and services.